Time;durP1;ratioP1;P1;durP2;ratioP2;P2;SDS_P1;SDS_P2;PMS_P1;PMS_P2;Temp;Humidity;BMP_temperature;BMP_pressure;BME280_temperature;BME280_humidity;BME280_pressure;Samples;Min_cycle;Max_cycle;Signal;HPM_P1;HPM_P2
2024/01/04 00:00:23;;;;;;;0.00;0.00;;;26.20;51.50;;;;;;5070545;28;20207;-41
2024/01/04 00:02:54;;;;;;;0.00;0.00;;;26.20;51.40;;;;;;5070901;28;20229;-44
2024/01/04 00:05:24;;;;;;;0.00;0.00;;;26.20;51.30;;;;;;5071195;28;20205;-44
2024/01/04 00:07:57;;;;;;;0.00;0.00;;;26.20;51.30;;;;;;5070610;28;20352;-42
2024/01/04 00:10:28;;;;;;;0.00;0.00;;;26.20;51.30;;;;;;5070568;28;20218;-43
2024/01/04 00:12:58;;;;;;;0.00;0.00;;;26.30;51.40;;;;;;5070603;28;20202;-41
2024/01/04 00:15:29;;;;;;;0.00;0.00;;;26.30;51.30;;;;;;5072341;28;20194;-41
2024/01/04 00:18:00;;;;;;;0.00;0.00;;;26.30;51.30;;;;;;5075111;28;20198;-41
2024/01/04 00:20:31;;;;;;;0.00;0.00;;;26.40;51.30;;;;;;5074831;28;20214;-41
2024/01/04 00:23:03;;;;;;;0.00;0.00;;;26.40;51.30;;;;;;5071713;28;20709;-42
2024/01/04 00:25:34;;;;;;;0.00;0.00;;;26.40;51.20;;;;;;5074639;28;20187;-43
2024/01/04 00:28:05;;;;;;;0.00;0.00;;;26.40;51.20;;;;;;5071167;28;20198;-42
2024/01/04 00:30:36;;;;;;;0.08;0.08;;;26.40;51.10;;;;;;5072434;28;20211;-41
2024/01/04 00:33:07;;;;;;;0.00;0.00;;;26.50;51.10;;;;;;5071025;28;20213;-40
2024/01/04 00:35:40;;;;;;;0.00;0.00;;;26.50;51.00;;;;;;5070234;28;20199;-41
2024/01/04 00:38:13;;;;;;;0.00;0.00;;;26.50;51.00;;;;;;5069925;28;20195;-41
2024/01/04 00:40:44;;;;;;;0.00;0.00;;;26.50;51.00;;;;;;5069977;28;20277;-40
2024/01/04 00:43:15;;;;;;;0.00;0.00;;;26.50;51.00;;;;;;5070382;28;20313;-42
2024/01/04 00:45:46;;;;;;;0.00;0.00;;;26.50;50.90;;;;;;5070180;28;20573;-41
2024/01/04 00:48:16;;;;;;;0.00;0.00;;;26.50;50.80;;;;;;5070677;28;20191;-41
2024/01/04 00:50:47;;;;;;;0.00;0.00;;;26.50;50.80;;;;;;5070068;28;20194;-44
2024/01/04 00:53:20;;;;;;;0.00;0.00;;;26.60;50.80;;;;;;5069119;28;20211;-42
2024/01/04 00:55:50;;;;;;;0.00;0.00;;;26.60;50.70;;;;;;5070074;28;20209;-41
2024/01/04 00:58:21;;;;;;;0.00;0.00;;;26.60;50.70;;;;;;5070644;28;20195;-41
2024/01/04 01:00:52;;;;;;;0.00;0.00;;;26.60;51.30;;;;;;5070430;28;20195;-43
2024/01/04 01:03:22;;;;;;;0.00;0.00;;;26.60;50.70;;;;;;5068941;28;20222;-41
2024/01/04 01:05:53;;;;;;;0.00;0.00;;;26.60;50.70;;;;;;5070338;28;20348;-40
2024/01/04 01:08:26;;;;;;;0.00;0.00;;;26.60;50.70;;;;;;5069999;28;20281;-42
2024/01/04 01:10:57;;;;;;;0.00;0.00;;;26.60;50.70;;;;;;5070273;28;20199;-41
2024/01/04 01:13:28;;;;;;;0.00;0.00;;;26.60;50.70;;;;;;5069926;28;20195;-40
2024/01/04 01:15:58;;;;;;;0.00;0.00;;;26.60;50.70;;;;;;5069267;28;20202;-41
2024/01/04 01:18:30;;;;;;;0.00;0.00;;;26.60;50.60;;;;;;5070045;28;20203;-42
2024/01/04 01:21:02;;;;;;;0.00;0.00;;;26.60;50.60;;;;;;5067213;28;20670;-46
2024/01/04 01:23:35;;;;;;;0.00;0.00;;;26.70;50.70;;;;;;5068928;28;20205;-43
2024/01/04 01:26:06;;;;;;;0.00;0.00;;;26.60;50.50;;;;;;5067910;28;20206;-45
2024/01/04 01:28:36;;;;;;;0.00;0.00;;;26.70;50.50;;;;;;5069064;28;20207;-60
2024/01/04 01:31:07;;;;;;;0.00;0.00;;;26.70;50.30;;;;;;5068620;28;20547;-63
2024/01/04 01:33:38;;;;;;;0.00;0.00;;;26.60;50.30;;;;;;5068974;28;20187;-57
2024/01/04 01:36:09;;;;;;;0.00;0.00;;;26.50;50.40;;;;;;5068300;28;20203;-55
2024/01/04 01:38:42;;;;;;;0.00;0.00;;;26.50;50.70;;;;;;5064766;28;20231;-57
2024/01/04 01:41:13;;;;;;;0.00;0.00;;;26.40;50.80;;;;;;5069346;28;20202;-59
2024/01/04 01:43:43;;;;;;;0.00;0.00;;;26.30;51.00;;;;;;5066942;28;20659;-58
2024/01/04 01:46:14;;;;;;;0.00;0.00;;;26.20;51.10;;;;;;5068451;28;20222;-56
2024/01/04 01:48:45;;;;;;;0.00;0.00;;;26.20;51.30;;;;;;5067822;28;20226;-53
2024/01/04 01:51:16;;;;;;;0.00;0.00;;;26.10;51.20;;;;;;5049488;28;20667;-50
2024/01/04 01:53:51;;;;;;;0.00;0.00;;;26.00;51.30;;;;;;5087682;22;20723;-60
2024/01/04 01:56:22;;;;;;;0.00;0.00;;;25.90;51.90;;;;;;5087377;28;20684;-45
2024/01/04 01:58:54;;;;;;;0.00;0.00;;;25.80;52.20;;;;;;5089006;28;20218;-48
2024/01/04 02:01:25;;;;;;;0.00;0.00;;;25.80;52.30;;;;;;5089103;28;20202;-51
2024/01/04 02:03:56;;;;;;;0.00;0.00;;;25.70;52.30;;;;;;5089013;28;20200;-48
2024/01/04 02:06:27;;;;;;;0.00;0.00;;;25.70;52.50;;;;;;5068378;28;20202;-49
2024/01/04 02:09:01;;;;;;;0.00;0.00;;;25.80;52.60;;;;;;5088412;28;20232;-48
2024/01/04 02:11:32;;;;;;;0.00;0.00;;;25.80;52.50;;;;;;5088547;28;20241;-47
2024/01/04 02:14:03;;;;;;;0.00;0.00;;;25.90;52.50;;;;;;5088340;28;20194;-47
2024/01/04 02:16:37;;;;;;;0.00;0.00;;;25.90;52.60;;;;;;5088818;28;20293;-50
2024/01/04 02:19:13;;;;;;;0.00;0.00;;;25.90;52.50;;;;;;5088441;28;20245;-48
2024/01/04 02:21:44;;;;;;;0.00;0.00;;;26.00;52.60;;;;;;5088936;28;20208;-46
2024/01/04 02:24:17;;;;;;;0.00;0.00;;;26.00;53.00;;;;;;5088680;28;20200;-47
2024/01/04 02:26:48;;;;;;;0.00;0.00;;;26.00;52.40;;;;;;5088653;28;20662;-48
2024/01/04 02:29:24;;;;;;;0.00;0.00;;;26.10;52.40;;;;;;5088836;28;20769;-48
2024/01/04 02:31:55;;;;;;;0.00;0.00;;;26.10;52.40;;;;;;5089406;28;20736;-47
2024/01/04 02:34:26;;;;;;;0.00;0.00;;;26.20;52.30;;;;;;5089144;28;20284;-48
2024/01/04 02:36:57;;;;;;;0.00;0.00;;;26.20;52.30;;;;;;5089266;28;20198;-48
2024/01/04 02:39:30;;;;;;;0.00;0.00;;;26.20;52.30;;;;;;5087630;28;20210;-48
2024/01/04 02:42:01;;;;;;;0.00;0.00;;;26.20;52.30;;;;;;5088465;28;20222;-48
2024/01/04 02:44:32;;;;;;;0.00;0.00;;;26.20;52.20;;;;;;5087952;28;20204;-48
2024/01/04 02:47:03;;;;;;;0.00;0.00;;;26.30;52.20;;;;;;5088873;28;20193;-48
2024/01/04 02:49:34;;;;;;;0.00;0.00;;;26.30;52.20;;;;;;5087189;28;20597;-46
2024/01/04 02:52:06;;;;;;;0.00;0.00;;;26.30;52.10;;;;;;5088607;28;20680;-46
2024/01/04 02:54:39;;;;;;;0.00;0.00;;;26.40;52.10;;;;;;5086717;28;20666;-47
2024/01/04 02:57:10;;;;;;;0.00;0.00;;;26.40;52.10;;;;;;5087663;28;20200;-48
2024/01/04 02:59:41;;;;;;;0.00;0.00;;;26.50;52.10;;;;;;5088406;28;20301;-47
2024/01/04 03:02:12;;;;;;;0.00;0.00;;;26.50;52.10;;;;;;5088328;28;20226;-47
2024/01/04 03:04:44;;;;;;;0.00;0.00;;;26.50;52.00;;;;;;5087926;28;20196;-48
2024/01/04 03:07:16;;;;;;;0.00;0.00;;;26.50;51.90;;;;;;5087382;28;20248;-47
2024/01/04 03:09:50;;;;;;;0.00;0.00;;;26.60;51.90;;;;;;5087423;28;20225;-45
2024/01/04 03:12:21;;;;;;;0.00;0.00;;;26.60;51.90;;;;;;5088283;28;20306;-46
2024/01/04 03:14:52;;;;;;;0.00;0.00;;;26.60;51.90;;;;;;5087253;28;20190;-45
2024/01/04 03:17:23;;;;;;;0.00;0.00;;;26.70;51.90;;;;;;5088689;28;20362;-46
2024/01/04 03:19:54;;;;;;;0.00;0.00;;;26.70;51.80;;;;;;5087976;28;20724;-45
2024/01/04 03:22:25;;;;;;;0.00;0.00;;;26.70;51.80;;;;;;5087790;28;20230;-46
2024/01/04 03:24:57;;;;;;;0.00;0.00;;;26.70;51.70;;;;;;5087865;28;20198;-49
2024/01/04 03:27:28;;;;;;;0.00;0.00;;;26.80;51.80;;;;;;5088027;28;20208;-46
2024/01/04 03:29:59;;;;;;;0.00;0.00;;;26.80;51.70;;;;;;5082487;28;20489;-47
2024/01/04 03:32:29;;;;;;;0.00;0.00;;;26.80;51.70;;;;;;5088463;28;20209;-48
2024/01/04 03:35:00;;;;;;;0.00;0.00;;;26.90;51.80;;;;;;5087939;28;20194;-48
2024/01/04 03:37:31;;;;;;;0.00;0.00;;;26.90;51.70;;;;;;5087498;28;20576;-51
2024/01/04 03:40:04;;;;;;;0.00;0.00;;;26.90;51.70;;;;;;5088021;28;20224;-52
2024/01/04 03:42:34;;;;;;;0.00;0.00;;;26.90;51.70;;;;;;5086697;28;20589;-50
2024/01/04 03:45:06;;;;;;;0.00;0.00;;;27.00;51.70;;;;;;5087731;28;20629;-50
2024/01/04 03:47:37;;;;;;;0.00;0.00;;;27.00;51.60;;;;;;5082713;28;20704;-51
2024/01/04 03:50:09;;;;;;;0.00;0.00;;;27.10;51.60;;;;;;5086403;28;20799;-50
2024/01/04 03:52:39;;;;;;;0.00;0.00;;;27.10;51.60;;;;;;5098623;22;20197;-41
2024/01/04 03:55:14;;;;;;;0.00;0.00;;;27.10;51.50;;;;;;5047764;28;20191;-43
2024/01/04 03:57:47;;;;;;;0.00;0.00;;;27.20;51.50;;;;;;5046410;28;20288;-42
2024/01/04 04:00:18;;;;;;;0.00;0.00;;;27.20;51.40;;;;;;5046811;28;20230;-44
2024/01/04 04:02:51;;;;;;;0.00;0.00;;;27.30;51.40;;;;;;5048051;28;20219;-43
2024/01/04 04:05:21;;;;;;;0.00;0.00;;;27.40;51.40;;;;;;5043930;28;20203;-42
2024/01/04 04:07:52;;;;;;;0.00;0.00;;;27.40;51.30;;;;;;5024077;28;20204;-42
2024/01/04 04:10:25;;;;;;;0.00;0.00;;;27.40;51.20;;;;;;5027135;28;20226;-44
2024/01/04 04:12:55;;;;;;;0.00;0.00;;;27.50;51.30;;;;;;5033740;28;20192;-42
2024/01/04 04:15:26;;;;;;;0.00;0.00;;;27.50;51.20;;;;;;5026556;28;20210;-46
2024/01/04 04:17:57;;;;;;;0.00;0.00;;;27.50;51.20;;;;;;5039132;28;20200;-44
2024/01/04 04:20:28;;;;;;;0.00;0.00;;;27.50;51.20;;;;;;5038350;28;20228;-42
2024/01/04 04:22:58;;;;;;;0.00;0.00;;;27.50;51.20;;;;;;5038054;28;20230;-42
2024/01/04 04:25:31;;;;;;;0.00;0.00;;;27.50;51.10;;;;;;5046691;28;20218;-42
2024/01/04 04:28:02;;;;;;;0.00;0.00;;;27.60;51.10;;;;;;5046364;28;20203;-42
2024/01/04 04:30:32;;;;;;;0.00;0.00;;;27.60;51.00;;;;;;5046699;28;20231;-42
2024/01/04 04:33:03;;;;;;;0.00;0.00;;;27.60;50.80;;;;;;5047133;28;20192;-43
2024/01/04 04:35:34;;;;;;;0.00;0.00;;;27.60;50.60;;;;;;5028049;28;20226;-43
2024/01/04 04:38:04;;;;;;;0.00;0.00;;;27.60;49.50;;;;;;5028125;28;20200;-42
2024/01/04 04:40:37;;;;;;;0.00;0.00;;;27.60;49.40;;;;;;5027096;28;20216;-42
2024/01/04 04:43:08;;;;;;;0.00;0.00;;;27.60;49.10;;;;;;5038271;28;20219;-44
2024/01/04 04:45:42;;;;;;;0.00;0.00;;;27.60;49.00;;;;;;5029304;28;20212;-44
2024/01/04 04:48:12;;;;;;;0.00;0.00;;;27.60;48.80;;;;;;5039334;28;20206;-42
2024/01/04 04:50:43;;;;;;;0.00;0.00;;;27.60;48.80;;;;;;5030526;28;20217;-44
2024/01/04 04:53:14;;;;;;;0.00;0.00;;;27.60;48.70;;;;;;5039304;28;20207;-43
2024/01/04 04:55:48;;;;;;;0.00;0.00;;;27.60;48.50;;;;;;5046601;28;20546;-41
2024/01/04 04:58:19;;;;;;;0.00;0.00;;;27.50;48.20;;;;;;5042667;28;20195;-42
2024/01/04 05:00:50;;;;;;;0.00;0.00;;;27.50;48.10;;;;;;5027328;28;20192;-42
2024/01/04 05:03:20;;;;;;;0.00;0.00;;;27.60;48.10;;;;;;5042851;28;20605;-41
2024/01/04 05:05:51;;;;;;;0.00;0.00;;;27.60;48.20;;;;;;5050315;28;20204;-42
2024/01/04 05:08:22;;;;;;;0.00;0.00;;;27.60;48.20;;;;;;5047934;28;20200;-41
2024/01/04 05:10:54;;;;;;;0.00;0.00;;;27.60;48.30;;;;;;5050582;28;20195;-42
2024/01/04 05:13:25;;;;;;;0.00;0.00;;;27.60;48.20;;;;;;5044210;28;20211;-42
2024/01/04 05:15:56;;;;;;;0.00;0.00;;;27.50;48.20;;;;;;5050141;28;20203;-43
2024/01/04 05:18:27;;;;;;;0.00;0.00;;;27.60;48.10;;;;;;5049628;28;20655;-41
2024/01/04 05:20:59;;;;;;;0.00;0.00;;;27.50;48.00;;;;;;5050765;28;20220;-42
2024/01/04 05:23:30;;;;;;;0.00;0.00;;;27.50;48.00;;;;;;5047594;28;20223;-44
2024/01/04 05:26:03;;;;;;;0.00;0.00;;;27.50;47.90;;;;;;5028848;28;20558;-42
2024/01/04 05:28:34;;;;;;;0.00;0.00;;;27.50;47.80;;;;;;5035028;28;20249;-41
2024/01/04 05:31:05;;;;;;;0.00;0.00;;;27.50;47.50;;;;;;5049641;28;20199;-42
2024/01/04 05:33:36;;;;;;;0.00;0.00;;;27.50;47.50;;;;;;5049409;28;20211;-43
2024/01/04 05:36:07;;;;;;;0.00;0.00;;;27.50;47.40;;;;;;5042871;28;20646;-46
2024/01/04 05:38:37;;;;;;;0.00;0.00;;;27.50;47.50;;;;;;5042443;28;20195;-45
2024/01/04 05:41:10;;;;;;;0.00;0.00;;;27.50;47.30;;;;;;5050163;28;20210;-44
2024/01/04 05:43:41;;;;;;;0.00;0.00;;;27.50;47.30;;;;;;5041555;28;20226;-44
2024/01/04 05:46:11;;;;;;;0.00;0.00;;;27.50;47.10;;;;;;5049419;28;20683;-43
2024/01/04 05:48:42;;;;;;;0.00;0.00;;;27.50;47.10;;;;;;5035188;28;20220;-44
2024/01/04 05:51:13;;;;;;;0.00;0.00;;;27.50;47.00;;;;;;5029461;28;20200;-42
2024/01/04 05:53:43;;;;;;;0.00;0.00;;;27.40;46.70;;;;;;5042440;28;20222;-41
2024/01/04 05:56:16;;;;;;;0.00;0.00;;;27.50;46.40;;;;;;5049961;28;20196;-41
2024/01/04 05:58:47;;;;;;;0.00;0.00;;;27.50;46.00;;;;;;5049627;28;20556;-43
2024/01/04 06:01:18;;;;;;;0.00;0.00;;;27.40;45.80;;;;;;5039900;28;20196;-43
2024/01/04 06:03:49;;;;;;;0.00;0.00;;;27.40;45.60;;;;;;5041778;28;20223;-43
2024/01/04 06:06:20;;;;;;;0.00;0.00;;;27.40;45.30;;;;;;5049477;28;20207;-43
2024/01/04 06:08:50;;;;;;;0.00;0.00;;;27.40;45.20;;;;;;5035681;28;20216;-45
2024/01/04 06:11:24;;;;;;;0.00;0.00;;;27.30;45.30;;;;;;5028679;28;20196;-44
2024/01/04 06:13:55;;;;;;;0.00;0.00;;;27.30;45.30;;;;;;5040934;28;20294;-42
2024/01/04 06:16:25;;;;;;;0.00;0.00;;;27.30;45.60;;;;;;5032946;28;20206;-43
2024/01/04 06:18:56;;;;;;;0.00;0.00;;;27.30;45.70;;;;;;5041438;28;20219;-46
2024/01/04 06:21:27;;;;;;;0.00;0.00;;;27.30;45.80;;;;;;5049166;28;20203;-45
2024/01/04 06:23:58;;;;;;;0.00;0.00;;;27.30;45.60;;;;;;5048061;28;20223;-45
2024/01/04 06:26:31;;;;;;;0.00;0.00;;;27.30;45.70;;;;;;5048492;28;20204;-44
2024/01/04 06:29:01;;;;;;;0.00;0.00;;;27.30;45.60;;;;;;5012354;28;20319;-44
2024/01/04 06:31:32;;;;;;;0.00;0.00;;;27.30;45.50;;;;;;5013089;28;20199;-46
2024/01/04 06:34:03;;;;;;;0.00;0.00;;;27.30;45.20;;;;;;5012848;28;20218;-45
2024/01/04 06:36:36;;;;;;;0.00;0.00;;;27.20;45.10;;;;;;5012983;28;20228;-45
2024/01/04 06:39:10;;;;;;;0.00;0.00;;;27.30;45.00;;;;;;5011826;28;20259;-48
2024/01/04 06:41:44;;;;;;;0.00;0.00;;;27.20;44.80;;;;;;5011998;28;20200;-49
2024/01/04 06:44:15;;;;;;;0.00;0.00;;;27.20;44.40;;;;;;5026613;28;20224;-45
2024/01/04 06:46:46;;;;;;;0.00;0.00;;;27.20;43.80;;;;;;5032508;28;20656;-46
2024/01/04 06:49:16;;;;;;;0.00;0.00;;;27.20;43.70;;;;;;5032423;28;20223;-49
2024/01/04 06:51:47;;;;;;;0.00;0.00;;;27.10;43.50;;;;;;5022247;28;20199;-46
2024/01/04 06:54:18;;;;;;;0.00;0.00;;;27.10;43.50;;;;;;5012514;28;20209;-51
2024/01/04 06:56:50;;;;;;;0.00;0.00;;;27.10;43.50;;;;;;5012365;28;20671;-45
2024/01/04 06:59:21;;;;;;;0.00;0.00;;;27.10;43.40;;;;;;5012413;28;20577;-46
2024/01/04 07:01:52;;;;;;;0.00;0.00;;;27.00;43.30;;;;;;5011737;28;20197;-43
2024/01/04 07:04:23;;;;;;;0.00;0.00;;;27.00;43.30;;;;;;5011807;28;20229;-46
2024/01/04 07:06:53;;;;;;;0.00;0.00;;;27.00;43.30;;;;;;5014200;28;20207;-43
2024/01/04 07:09:24;;;;;;;0.00;0.00;;;27.00;43.30;;;;;;5031215;28;20223;-45
2024/01/04 07:11:57;;;;;;;0.00;0.00;;;27.00;43.40;;;;;;5031232;28;20193;-41
2024/01/04 07:14:28;;;;;;;0.00;0.00;;;27.00;43.30;;;;;;5031507;28;20283;-47
2024/01/04 07:16:59;;;;;;;0.00;0.00;;;27.00;43.30;;;;;;5031109;28;20648;-47
2024/01/04 07:19:29;;;;;;;0.00;0.00;;;27.00;43.30;;;;;;5031241;28;20226;-44
2024/01/04 07:22:00;;;;;;;0.00;0.00;;;27.00;43.20;;;;;;5031243;28;20192;-45
2024/01/04 07:24:31;;;;;;;0.00;0.00;;;27.00;43.20;;;;;;5029688;28;20226;-46
2024/01/04 07:27:04;;;;;;;0.00;0.00;;;27.00;43.10;;;;;;5031084;28;20309;-43
2024/01/04 07:29:34;;;;;;;0.00;0.00;;;26.90;43.00;;;;;;5031566;28;20684;-42
2024/01/04 07:32:05;;;;;;;0.00;0.00;;;26.90;42.80;;;;;;5031713;28;20723;-44
2024/01/04 07:34:39;;;;;;;0.00;0.00;;;26.90;42.70;;;;;;5031530;28;20678;-44
2024/01/04 07:37:10;;;;;;;0.00;0.00;;;26.90;42.60;;;;;;5031388;28;20653;-40
2024/01/04 07:39:41;;;;;;;0.00;0.00;;;26.90;42.50;;;;;;5031169;28;20583;-43
2024/01/04 07:42:14;;;;;;;0.00;0.00;;;26.80;42.30;;;;;;5031609;28;20529;-42
2024/01/04 07:44:44;;;;;;;0.00;0.00;;;26.80;42.20;;;;;;5031264;28;20232;-44
2024/01/04 07:47:15;;;;;;;0.00;0.00;;;26.80;42.20;;;;;;5030848;28;20204;-47
2024/01/04 07:49:46;;;;;;;0.00;0.00;;;26.80;42.20;;;;;;5030458;28;20212;-50
2024/01/04 07:52:16;;;;;;;0.00;0.00;;;26.70;42.20;;;;;;5030618;28;20192;-45
2024/01/04 07:54:47;;;;;;;0.00;0.00;;;26.70;42.10;;;;;;5031823;28;20670;-48
2024/01/04 07:57:20;;;;;;;0.00;0.00;;;26.70;42.10;;;;;;5030772;28;20242;-43
2024/01/04 07:59:50;;;;;;;0.00;0.00;;;26.70;42.10;;;;;;5030402;28;20692;-43
2024/01/04 08:02:21;;;;;;;0.00;0.00;;;26.70;42.20;;;;;;5030238;28;20192;-43
2024/01/04 08:04:53;;;;;;;0.00;0.00;;;26.70;42.40;;;;;;5030018;28;20254;-45
2024/01/04 08:07:24;;;;;;;0.00;0.00;;;26.70;42.40;;;;;;5030455;28;20635;-44
2024/01/04 08:09:55;;;;;;;0.00;0.00;;;26.60;42.40;;;;;;5030672;28;20223;-43
2024/01/04 08:12:28;;;;;;;0.00;0.00;;;26.60;42.50;;;;;;5030606;28;20253;-41
2024/01/04 08:14:58;;;;;;;0.00;0.00;;;26.60;42.50;;;;;;5031065;28;20200;-42
2024/01/04 08:17:29;;;;;;;0.00;0.00;;;26.60;42.50;;;;;;5030904;28;20196;-41
2024/01/04 08:20:00;;;;;;;0.00;0.00;;;26.60;43.10;;;;;;5031041;28;20586;-45
2024/01/04 08:22:31;;;;;;;0.00;0.00;;;26.60;42.50;;;;;;5030625;28;20699;-44
2024/01/04 08:25:02;;;;;;;0.00;0.00;;;26.60;42.50;;;;;;5031069;28;20226;-45
2024/01/04 08:27:34;;;;;;;0.00;0.00;;;26.50;42.40;;;;;;5030514;28;20200;-45
2024/01/04 08:30:05;;;;;;;0.00;0.00;;;26.50;42.30;;;;;;5030681;28;20230;-44
2024/01/04 08:32:36;;;;;;;0.00;0.00;;;26.50;42.30;;;;;;5030677;28;20192;-49
2024/01/04 08:35:07;;;;;;;0.00;0.00;;;26.50;42.10;;;;;;5030949;28;20656;-45
2024/01/04 08:37:37;;;;;;;0.00;0.00;;;26.50;42.10;;;;;;5032529;28;20211;-48
2024/01/04 08:40:09;;;;;;;0.00;0.00;;;26.50;42.00;;;;;;5034066;28;20561;-47
2024/01/04 08:42:42;;;;;;;0.00;0.00;;;26.50;42.10;;;;;;5034085;28;20192;-45
2024/01/04 08:45:13;;;;;;;0.00;0.00;;;26.40;41.90;;;;;;5034123;28;20231;-44
2024/01/04 08:47:44;;;;;;;0.00;0.00;;;26.40;41.90;;;;;;5016566;28;20201;-42
2024/01/04 08:50:15;;;;;;;0.00;0.00;;;26.40;41.90;;;;;;5023571;28;20742;-43
2024/01/04 08:52:45;;;;;;;0.00;0.00;;;26.40;41.90;;;;;;5034394;28;20204;-44
2024/01/04 08:55:18;;;;;;;0.00;0.00;;;26.30;41.90;;;;;;5034218;28;20227;-46
2024/01/04 08:57:50;;;;;;;0.00;0.00;;;26.30;41.90;;;;;;5033536;28;20231;-42
2024/01/04 09:00:21;;;;;;;0.00;0.00;;;26.30;42.00;;;;;;5033975;28;20227;-45
2024/01/04 09:02:52;;;;;;;0.00;0.00;;;26.30;42.00;;;;;;5034477;28;20222;-46
2024/01/04 09:05:23;;;;;;;0.00;0.00;;;26.30;42.10;;;;;;5034206;28;20231;-44
2024/01/04 09:07:54;;;;;;;0.00;0.00;;;26.30;42.10;;;;;;5033167;28;20611;-45
2024/01/04 09:10:25;;;;;;;0.00;0.00;;;26.30;42.20;;;;;;5033692;28;20220;-41
2024/01/04 09:12:58;;;;;;;0.00;0.00;;;26.20;42.10;;;;;;5034091;28;20208;-48
2024/01/04 09:15:28;;;;;;;0.00;0.00;;;26.20;42.20;;;;;;5034045;28;20200;-46
2024/01/04 09:17:59;;;;;;;0.00;0.00;;;26.20;42.20;;;;;;5033861;28;20204;-47
2024/01/04 09:20:30;;;;;;;0.00;0.00;;;26.20;42.20;;;;;;5031195;28;20593;-43
2024/01/04 09:23:00;;;;;;;0.00;0.00;;;26.20;42.20;;;;;;5029959;28;20201;-44
2024/01/04 09:25:31;;;;;;;0.00;0.00;;;26.20;42.20;;;;;;5034321;28;20215;-44
2024/01/04 09:28:04;;;;;;;0.00;0.00;;;26.20;42.20;;;;;;5034712;28;20200;-44
2024/01/04 09:30:35;;;;;;;0.00;0.00;;;26.20;42.20;;;;;;5034696;28;20219;-46
2024/01/04 09:33:07;;;;;;;0.00;0.00;;;26.20;42.30;;;;;;5050359;28;20318;-46
2024/01/04 09:35:38;;;;;;;0.00;0.00;;;26.20;42.30;;;;;;5044715;28;20195;-40
2024/01/04 09:38:09;;;;;;;0.00;0.00;;;26.10;42.20;;;;;;5036677;28;20421;-42
2024/01/04 09:40:39;;;;;;;0.00;0.00;;;26.10;42.30;;;;;;5020259;28;20244;-43
2024/01/04 09:43:15;;;;;;;0.00;0.00;;;26.10;42.30;;;;;;5049295;28;20199;-44
2024/01/04 09:45:47;;;;;;;0.00;0.00;;;26.10;42.30;;;;;;5034709;28;20215;-42
2024/01/04 09:48:21;;;;;;;0.00;0.00;;;26.10;42.30;;;;;;5048624;28;20199;-44
2024/01/04 09:50:51;;;;;;;0.00;0.00;;;26.00;42.30;;;;;;5038878;28;20198;-41
2024/01/04 09:53:22;;;;;;;0.00;0.00;;;26.00;42.40;;;;;;5050397;28;20698;-43
2024/01/04 09:55:53;;;;;;;0.00;0.00;;;26.00;42.50;;;;;;5049698;28;20199;-42
2024/01/04 09:58:25;;;;;;;0.00;0.00;;;26.00;42.50;;;;;;5049172;28;20869;-44
2024/01/04 10:00:57;;;;;;;0.00;0.00;;;26.00;42.50;;;;;;5035536;28;20198;-42
2024/01/04 10:03:28;;;;;;;0.00;0.00;;;26.00;42.50;;;;;;5036122;28;20192;-45
2024/01/04 10:06:02;;;;;;;0.00;0.00;;;26.00;42.60;;;;;;5035071;28;20566;-41
2024/01/04 10:08:39;;;;;;;0.00;0.00;;;25.90;42.60;;;;;;5033208;28;20204;-41
2024/01/04 10:11:22;;;;;;;0.00;0.00;;;25.90;42.50;;;;;;5035709;28;20643;-44
2024/01/04 10:13:55;;;;;;;0.00;0.00;;;25.90;42.50;;;;;;5048721;28;20191;-42
2024/01/04 10:16:27;;;;;;;0.00;0.00;;;25.90;42.50;;;;;;5033945;28;20208;-45
2024/01/04 10:18:59;;;;;;;0.00;0.00;;;25.90;42.60;;;;;;5037124;28;20600;-44
2024/01/04 10:21:35;;;;;;;0.00;0.00;;;25.90;42.60;;;;;;5035288;28;20200;-41
2024/01/04 10:24:06;;;;;;;0.00;0.00;;;25.90;42.70;;;;;;5028361;28;20195;-43
2024/01/04 10:26:37;;;;;;;0.00;0.00;;;25.90;42.70;;;;;;5049078;28;20203;-41
2024/01/04 10:29:09;;;;;;;0.00;0.00;;;25.80;42.60;;;;;;5032493;28;20223;-44
2024/01/04 10:31:40;;;;;;;0.00;0.00;;;25.90;42.70;;;;;;5028227;28;20209;-44
2024/01/04 10:34:11;;;;;;;0.00;0.00;;;25.80;42.70;;;;;;5024575;28;20192;-43
2024/01/04 10:36:42;;;;;;;0.00;0.00;;;25.80;42.80;;;;;;5028291;28;20496;-44
2024/01/04 10:39:17;;;;;;;0.00;0.00;;;25.80;42.80;;;;;;5038953;28;20211;-43
2024/01/04 10:42:01;;;;;;;0.00;0.00;;;25.80;42.90;;;;;;5034609;28;20310;-43
2024/01/04 10:44:34;;;;;;;0.00;0.00;;;25.80;42.80;;;;;;5040501;28;20215;-42
2024/01/04 10:47:05;;;;;;;0.00;0.00;;;25.80;42.90;;;;;;5043940;28;20199;-42
2024/01/04 10:49:37;;;;;;;0.00;0.00;;;25.80;42.90;;;;;;5033948;28;20216;-42
2024/01/04 10:52:10;;;;;;;0.00;0.00;;;25.70;42.80;;;;;;5033166;28;20678;-42
2024/01/04 10:54:43;;;;;;;0.00;0.00;;;25.70;42.90;;;;;;5068341;22;20234;-46
2024/01/04 10:57:15;;;;;;;0.00;0.00;;;25.70;42.80;;;;;;5068150;28;20199;-46
2024/01/04 10:59:48;;;;;;;0.00;0.00;;;25.70;42.90;;;;;;5081279;28;20214;-46
2024/01/04 11:02:19;;;;;;;0.00;0.00;;;25.70;42.80;;;;;;5088185;28;20194;-46
2024/01/04 11:04:51;;;;;;;0.00;0.00;;;25.70;42.80;;;;;;5085926;28;20217;-47
2024/01/04 11:07:22;;;;;;;0.00;0.00;;;25.70;42.80;;;;;;5067828;28;20210;-48
2024/01/04 11:09:53;;;;;;;0.00;0.00;;;25.60;42.70;;;;;;5068279;28;20230;-47
2024/01/04 11:12:25;;;;;;;0.00;0.00;;;25.60;42.70;;;;;;5067837;28;20218;-47
2024/01/04 11:14:58;;;;;;;0.00;0.00;;;25.60;42.70;;;;;;5068094;28;20268;-47
2024/01/04 11:17:51;;;;;;;0.00;0.00;;;25.60;42.70;;;;;;5068233;28;20209;-48
2024/01/04 11:20:28;;;;;;;0.00;0.00;;;25.60;42.70;;;;;;5065858;28;20690;-45
2024/01/04 11:23:24;;;;;;;0.00;0.00;;;25.60;42.70;;;;;;5067027;28;20224;-48
2024/01/04 11:26:18;;;;;;;0.10;0.10;;;25.60;42.70;;;;;;5057230;28;20633;-48
2024/01/04 11:28:50;;;;;;;0.00;0.00;;;25.50;42.70;;;;;;5070594;28;20222;-46
2024/01/04 11:31:25;;;;;;;0.00;0.00;;;25.50;42.70;;;;;;5081312;28;20689;-46
2024/01/04 11:33:56;;;;;;;0.00;0.00;;;25.50;42.80;;;;;;5066463;28;20645;-47
2024/01/04 11:36:27;;;;;;;0.00;0.00;;;25.50;42.80;;;;;;5066947;28;20244;-46
2024/01/04 11:38:58;;;;;;;0.00;0.00;;;25.50;42.80;;;;;;5067973;28;20210;-47
2024/01/04 11:41:35;;;;;;;0.00;0.00;;;25.50;42.90;;;;;;5067367;28;20198;-46
2024/01/04 11:44:17;;;;;;;0.00;0.00;;;25.50;42.90;;;;;;5072758;28;20665;-45
2024/01/04 11:46:56;;;;;;;0.00;0.00;;;25.50;42.90;;;;;;5069309;28;20233;-48
2024/01/04 11:49:27;;;;;;;0.00;0.00;;;25.40;42.80;;;;;;5068448;28;20600;-46
2024/01/04 11:52:04;;;;;;;0.00;0.00;;;25.40;42.90;;;;;;5068412;28;20741;-46
2024/01/04 11:54:36;;;;;;;0.00;0.00;;;25.40;42.90;;;;;;5117981;22;20224;-41
2024/01/04 11:57:19;;;;;;;0.00;0.00;;;25.40;42.90;;;;;;5121706;28;20661;-45
2024/01/04 11:59:50;;;;;;;0.00;0.00;;;25.40;42.90;;;;;;5118225;28;20223;-44
2024/01/04 12:02:26;;;;;;;0.00;0.00;;;25.30;42.90;;;;;;5128041;28;20656;-45
2024/01/04 12:04:56;;;;;;;0.00;0.00;;;25.40;43.00;;;;;;5128327;28;20208;-45
2024/01/04 12:07:28;;;;;;;0.00;0.00;;;25.30;42.90;;;;;;5127032;28;20197;-41
2024/01/04 12:10:01;;;;;;;0.00;0.00;;;25.30;42.90;;;;;;5127543;27;20208;-45
2024/01/04 12:12:32;;;;;;;0.00;0.00;;;25.30;42.90;;;;;;5114515;27;20713;-40
2024/01/04 12:15:03;;;;;;;0.00;0.00;;;25.30;42.90;;;;;;5122770;27;20207;-40
2024/01/04 12:17:36;;;;;;;0.00;0.00;;;25.30;42.90;;;;;;5112558;28;20574;-40
2024/01/04 12:20:10;;;;;;;0.00;0.00;;;25.30;43.00;;;;;;5123996;27;20692;-40
2024/01/04 12:22:41;;;;;;;0.00;0.00;;;25.30;43.00;;;;;;5133131;27;20203;-45
2024/01/04 12:25:13;;;;;;;0.00;0.00;;;25.30;43.00;;;;;;5128610;27;20212;-41
2024/01/04 12:27:45;;;;;;;0.00;0.00;;;25.30;43.10;;;;;;5132435;27;20196;-41
2024/01/04 12:30:16;;;;;;;0.00;0.00;;;25.30;43.10;;;;;;5132158;27;20300;-44
2024/01/04 12:32:49;;;;;;;0.00;0.00;;;25.30;43.10;;;;;;5132368;27;20196;-41
2024/01/04 12:35:20;;;;;;;0.00;0.00;;;25.30;43.10;;;;;;5131647;27;20204;-41
2024/01/04 12:38:01;;;;;;;0.00;0.00;;;25.30;43.10;;;;;;5121994;27;20208;-48
2024/01/04 12:40:39;;;;;;;0.00;0.00;;;25.30;43.10;;;;;;5124654;27;20224;-41
2024/01/04 12:43:12;;;;;;;0.00;0.00;;;25.30;43.10;;;;;;5130799;27;20200;-45
2024/01/04 12:45:43;;;;;;;0.00;0.00;;;25.20;43.00;;;;;;5132216;27;20308;-41
2024/01/04 12:48:21;;;;;;;0.00;0.00;;;25.20;43.00;;;;;;5134774;27;20199;-44
2024/01/04 12:50:52;;;;;;;0.00;0.00;;;25.20;43.10;;;;;;5119628;27;20189;-44
2024/01/04 12:53:22;;;;;;;0.00;0.00;;;25.20;43.10;;;;;;5115399;28;20197;-43
2024/01/04 12:55:53;;;;;;;0.00;0.00;;;25.20;43.20;;;;;;5114608;28;20197;-45
2024/01/04 12:58:24;;;;;;;0.00;0.00;;;25.20;43.20;;;;;;5114637;28;20204;-45
2024/01/04 13:00:55;;;;;;;0.00;0.00;;;25.10;43.10;;;;;;5115211;28;20228;-41
2024/01/04 13:03:27;;;;;;;0.00;0.00;;;25.10;43.10;;;;;;5114518;28;20248;-41
2024/01/04 13:05:58;;;;;;;0.00;0.00;;;25.10;43.10;;;;;;5114718;28;20595;-42
2024/01/04 13:08:29;;;;;;;0.00;0.00;;;25.10;43.20;;;;;;5130502;27;20200;-40
2024/01/04 13:11:02;;;;;;;0.00;0.00;;;25.10;43.30;;;;;;5135372;27;20242;-46